Terminal Aerodrome Forecast
Issued by NWS

Home | Current Version | Previous Version | Text Only | Print | Product List | Glossary On
Versions: 1 2 3 4 5 6 7 8 9 10 11 12 13 14 15 16
000
FTUS43 KPAH 301100 RRA
TAFCGI
TAF
KCGI 301147Z 3012/3112 19003KT P6SM VCTS SCT050CB BKN100
      TEMPO 3012/3015 2SM +TSRA
     FM301500 20008KT 6SM -SHRA BR VCTS SCT035CB OVC050
     FM310000 19007KT P6SM OVC035
     FM310300 18004KT 2SM BR OVC007
     FM310800 18003KT 1SM BR OVC004=

USA.gov is the U.S. government's official web portal to all federal, state and local government web resources and services.